Time;durP1;ratioP1;P1;durP2;ratioP2;P2;SDS_P1;SDS_P2;PMS_P1;PMS_P2;Temp;Humidity;BMP_temperature;BMP_pressure;BME280_temperature;BME280_humidity;BME280_pressure;Samples;Min_cycle;Max_cycle;Signal;HPM_P1;HPM_P2
2023/04/10 00:02:19;;;;;;;58.00;37.17;;;9.20;99.90;;;;;;4791218;29;20275;-81
2023/04/10 00:04:45;;;;;;;58.53;36.90;;;9.20;99.90;;;;;;4776066;29;20299;-79
2023/04/10 00:07:11;;;;;;;59.42;37.65;;;9.20;99.90;;;;;;4775959;29;20195;-81
2023/04/10 00:09:37;;;;;;;61.38;38.03;;;9.20;99.90;;;;;;4790033;29;20253;-79
2023/04/10 00:12:03;;;;;;;63.75;39.95;;;9.20;99.90;;;;;;4791126;29;20263;-80
2023/04/10 00:14:29;;;;;;;58.13;37.63;;;9.10;99.90;;;;;;4774916;29;20203;-81
2023/04/10 00:16:55;;;;;;;61.05;38.45;;;9.10;99.90;;;;;;4791181;29;20188;-79
2023/04/10 00:19:20;;;;;;;62.20;39.20;;;9.10;99.90;;;;;;4775777;29;20196;-80
2023/04/10 00:21:46;;;;;;;63.00;39.03;;;9.00;99.90;;;;;;4776360;29;20184;-81
2023/04/10 00:24:12;;;;;;;60.85;38.72;;;9.00;99.90;;;;;;4789373;29;20207;-80
2023/04/10 00:26:39;;;;;;;62.55;39.65;;;9.00;99.90;;;;;;4791641;29;20184;-80
2023/04/10 00:29:05;;;;;;;62.88;40.25;;;9.00;99.90;;;;;;4802725;29;20198;-82
2023/04/10 00:31:31;;;;;;;63.55;40.47;;;9.00;99.90;;;;;;4798342;29;20227;-80
2023/04/10 00:33:57;;;;;;;65.13;38.33;;;8.90;99.90;;;;;;4780729;29;20636;-80
2023/04/10 00:36:23;;;;;;;62.45;39.90;;;8.90;99.90;;;;;;4795863;29;20191;-81
2023/04/10 00:38:48;;;;;;;65.20;39.08;;;8.90;99.90;;;;;;4778806;29;20188;-81
2023/04/10 00:41:15;;;;;;;66.65;41.40;;;8.90;99.90;;;;;;4792448;29;20192;-81
2023/04/10 00:43:42;;;;;;;61.85;39.72;;;8.90;99.90;;;;;;4773380;30;20205;-81
2023/04/10 00:46:08;;;;;;;63.00;40.30;;;8.80;99.90;;;;;;4785438;29;20282;-81
2023/04/10 00:48:35;;;;;;;64.60;38.95;;;8.80;99.90;;;;;;4806202;29;20196;-83
2023/04/10 00:51:01;;;;;;;63.85;38.75;;;8.80;99.90;;;;;;4799853;30;20200;-81
2023/04/10 00:53:28;;;;;;;67.60;39.22;;;8.70;99.90;;;;;;4792501;29;20215;-81
2023/04/10 00:55:55;;;;;;;61.10;39.13;;;8.70;99.90;;;;;;4804913;29;20202;-90
2023/04/10 00:58:21;;;;;;;67.50;40.88;;;8.60;99.90;;;;;;4795675;29;20664;-81
2023/04/10 01:00:47;;;;;;;64.10;39.05;;;8.60;99.90;;;;;;4777140;30;20184;-80
2023/04/10 01:03:15;;;;;;;63.75;38.92;;;8.60;99.90;;;;;;4773747;29;20191;-81
2023/04/10 01:06:00;;;;;;;69.15;41.13;;;8.60;99.90;;;;;;4772151;30;20193;-79
2023/04/10 01:08:40;;;;;;;63.35;40.20;;;8.50;99.90;;;;;;4774092;30;20327;-80
2023/04/10 01:11:26;;;;;;;67.65;41.33;;;8.50;99.90;;;;;;4761955;30;20232;-80
2023/04/10 01:13:56;;;;;;;66.50;40.13;;;8.50;99.90;;;;;;4773955;30;20212;-80
2023/04/10 01:16:32;;;;;;;68.05;41.25;;;8.40;99.90;;;;;;4789865;29;20625;-80
2023/04/10 01:19:38;;;;;;;70.25;42.95;;;8.30;99.90;;;;;;4788157;29;20668;-82
2023/04/10 01:22:09;;;;;;;70.10;43.30;;;8.40;99.90;;;;;;4779915;30;20184;-80
2023/04/10 01:25:14;;;;;;;74.68;43.92;;;8.40;99.90;;;;;;4772167;30;20195;-80
2023/04/10 01:28:04;;;;;;;74.05;44.42;;;8.30;99.90;;;;;;4785360;30;20711;-81
2023/04/10 01:30:34;;;;;;;75.07;45.78;;;8.30;99.90;;;;;;4775333;29;20598;-80
2023/04/10 01:33:01;;;;;;;77.25;45.08;;;8.30;99.90;;;;;;4790575;29;20278;-79
2023/04/10 01:35:29;;;;;;;75.45;45.05;;;8.20;99.90;;;;;;4789751;29;20256;-79
2023/04/10 01:37:58;;;;;;;74.97;44.03;;;8.30;99.90;;;;;;4789441;29;20188;-80
2023/04/10 01:40:26;;;;;;;73.32;45.53;;;8.30;99.90;;;;;;4789840;29;20279;-81
2023/04/10 01:42:55;;;;;;;77.53;45.53;;;8.10;99.90;;;;;;4805389;29;20187;-83
2023/04/10 01:45:28;;;;;;;78.40;46.70;;;8.10;99.90;;;;;;4779197;29;20188;-79
2023/04/10 01:47:54;;;;;;;78.68;46.67;;;8.10;99.90;;;;;;4773839;29;20196;-81
2023/04/10 01:50:24;;;;;;;84.32;49.33;;;8.10;99.90;;;;;;4774458;29;20275;-81
2023/04/10 01:52:51;;;;;;;75.70;47.60;;;8.10;99.90;;;;;;4789355;29;20223;-81
2023/04/10 01:55:24;;;;;;;77.93;48.15;;;8.00;99.90;;;;;;4789062;29;20270;-84
2023/04/10 01:58:05;;;;;;;82.32;48.67;;;8.00;99.90;;;;;;4788621;29;20191;-81
2023/04/10 02:00:38;;;;;;;80.10;49.13;;;8.00;99.90;;;;;;4790851;29;20223;-81
2023/04/10 02:03:03;;;;;;;79.03;48.22;;;8.00;99.90;;;;;;4786406;29;20193;-81
2023/04/10 02:05:39;;;;;;;88.45;50.78;;;8.00;99.90;;;;;;4759715;30;20646;-81
2023/04/10 02:08:14;;;;;;;83.47;50.10;;;8.00;99.90;;;;;;4785521;29;20635;-80
2023/04/10 02:10:43;;;;;;;88.97;51.67;;;8.00;99.90;;;;;;4778537;29;20231;-81
2023/04/10 02:13:13;;;;;;;81.78;49.17;;;8.00;99.90;;;;;;4778356;29;20223;-84
2023/04/10 02:15:45;;;;;;;79.78;49.38;;;8.00;99.90;;;;;;4782238;29;20212;-80
2023/04/10 02:18:14;;;;;;;83.45;49.25;;;7.90;99.90;;;;;;4777954;29;20210;-80
2023/04/10 02:20:40;;;;;;;81.13;50.35;;;7.90;99.90;;;;;;4777850;29;20192;-81
2023/04/10 02:23:07;;;;;;;85.72;50.08;;;7.90;99.90;;;;;;4777874;29;20543;-81
2023/04/10 02:25:33;;;;;;;83.50;50.30;;;7.90;99.90;;;;;;4792540;29;20287;-79
2023/04/10 02:28:04;;;;;;;83.47;51.17;;;8.00;99.90;;;;;;4792663;29;20215;-79
2023/04/10 02:30:32;;;;;;;81.25;49.13;;;7.90;99.90;;;;;;4792348;29;20687;-80
2023/04/10 02:32:58;;;;;;;80.50;48.95;;;7.90;99.90;;;;;;4792112;29;20688;-80
2023/04/10 02:35:25;;;;;;;78.40;47.97;;;7.80;99.90;;;;;;4777910;29;20554;-80
2023/04/10 02:37:51;;;;;;;83.00;49.67;;;7.90;99.90;;;;;;4777610;29;20192;-82
2023/04/10 02:40:17;;;;;;;83.70;51.15;;;7.90;99.90;;;;;;4790845;29;20677;-82
2023/04/10 02:42:54;;;;;;;78.10;47.00;;;7.90;99.90;;;;;;4773926;30;20196;-79
2023/04/10 02:45:20;;;;;;;80.40;49.30;;;7.90;99.90;;;;;;4785341;29;20200;-80
2023/04/10 02:47:46;;;;;;;80.32;49.25;;;7.90;99.90;;;;;;4792798;29;20186;-80
2023/04/10 02:50:13;;;;;;;80.47;49.15;;;7.80;99.90;;;;;;4777064;30;20291;-79
2023/04/10 02:52:42;;;;;;;81.43;48.72;;;7.80;99.90;;;;;;4760211;30;20279;-80
2023/04/10 02:55:09;;;;;;;82.18;50.00;;;7.80;99.90;;;;;;4760121;30;20208;-81
2023/04/10 02:57:36;;;;;;;82.13;49.15;;;7.80;99.90;;;;;;4774588;30;20211;-79
2023/04/10 03:00:04;;;;;;;80.93;49.70;;;7.80;99.90;;;;;;4777454;29;20701;-80
2023/04/10 03:02:46;;;;;;;79.78;48.30;;;7.80;99.90;;;;;;4772199;29;20570;-80
2023/04/10 03:05:16;;;;;;;80.95;48.35;;;7.80;99.90;;;;;;4777461;29;20275;-80
2023/04/10 03:07:42;;;;;;;80.90;49.83;;;7.80;99.90;;;;;;4777514;29;20276;-80
2023/04/10 03:10:08;;;;;;;78.13;47.65;;;7.80;99.90;;;;;;4753019;29;20192;-80
2023/04/10 03:12:35;;;;;;;81.40;47.55;;;7.70;99.90;;;;;;4792328;29;20216;-79
2023/04/10 03:15:01;;;;;;;77.80;48.20;;;7.80;99.90;;;;;;4800276;29;20562;-79
2023/04/10 03:17:27;;;;;;;78.88;47.92;;;7.70;99.90;;;;;;4777869;29;20188;-80
2023/04/10 03:19:53;;;;;;;78.68;48.80;;;7.70;99.90;;;;;;4782246;29;20180;-81
2023/04/10 03:22:20;;;;;;;79.25;49.70;;;7.70;99.90;;;;;;4777411;29;20270;-79
2023/04/10 03:24:47;;;;;;;80.38;49.83;;;7.70;99.90;;;;;;4776784;29;20184;-79
2023/04/10 03:27:13;;;;;;;82.45;50.38;;;7.70;99.90;;;;;;4773600;30;20193;-79
2023/04/10 03:29:39;;;;;;;80.35;48.55;;;7.70;99.90;;;;;;4777448;29;20569;-81
2023/04/10 03:32:04;;;;;;;76.35;46.90;;;7.70;99.90;;;;;;4789035;30;20228;-80
2023/04/10 03:34:31;;;;;;;79.15;48.03;;;7.70;99.90;;;;;;4790615;29;20192;-81
2023/04/10 03:36:57;;;;;;;79.00;47.85;;;7.60;99.90;;;;;;4791664;29;20210;-81
2023/04/10 03:39:23;;;;;;;80.65;47.33;;;7.60;99.90;;;;;;4806399;29;20184;-81
2023/04/10 03:41:49;;;;;;;80.30;47.53;;;7.60;99.90;;;;;;4825014;29;20191;-81
2023/04/10 03:44:16;;;;;;;77.15;47.03;;;7.60;99.90;;;;;;4792838;29;20180;-81
2023/04/10 03:46:42;;;;;;;80.00;46.63;;;7.60;99.90;;;;;;4776700;29;20203;-80
2023/04/10 03:49:08;;;;;;;77.70;48.58;;;7.50;99.90;;;;;;4761741;29;20196;-81
2023/04/10 03:51:34;;;;;;;80.53;47.33;;;7.50;99.90;;;;;;4802808;29;20293;-81
2023/04/10 03:54:00;;;;;;;75.60;46.90;;;7.50;99.90;;;;;;4792883;29;20264;-83
2023/04/10 03:56:26;;;;;;;77.88;47.40;;;7.50;99.90;;;;;;4783742;29;20189;-81
2023/04/10 03:58:52;;;;;;;86.50;48.88;;;7.40;99.90;;;;;;4788189;29;20196;-80
2023/04/10 04:01:19;;;;;;;86.30;49.50;;;7.40;99.90;;;;;;4790938;29;20193;-81
2023/04/10 04:03:58;;;;;;;83.75;49.63;;;7.40;99.90;;;;;;4777589;29;20199;-84
2023/04/10 04:06:33;;;;;;;84.00;50.88;;;7.40;99.90;;;;;;4775151;29;20199;-81
2023/04/10 04:09:38;;;;;;;88.82;49.95;;;7.40;99.90;;;;;;4722322;30;20195;-81
2023/04/10 04:12:33;;;;;;;90.65;52.17;;;7.30;99.90;;;;;;4738219;30;20314;-80
2023/04/10 04:15:22;;;;;;;86.50;52.47;;;7.30;99.90;;;;;;4792531;29;20204;-81
2023/04/10 04:18:11;;;;;;;85.65;52.67;;;7.30;99.90;;;;;;4773733;29;20242;-81
2023/04/10 04:20:45;;;;;;;89.05;53.55;;;7.20;99.90;;;;;;4772144;30;20193;-81
2023/04/10 04:23:34;;;;;;;96.32;55.38;;;7.20;99.90;;;;;;4773275;30;20729;-80
2023/04/10 04:26:00;;;;;;;96.15;56.65;;;7.20;99.90;;;;;;4772318;29;20287;-80
2023/04/10 04:28:46;;;;;;;92.82;55.40;;;7.20;99.90;;;;;;4785698;29;20244;-82
2023/04/10 04:31:11;;;;;;;95.80;56.35;;;7.20;99.90;;;;;;4788224;29;20207;-81
2023/04/10 04:33:55;;;;;;;91.50;55.22;;;7.10;99.90;;;;;;4773428;29;20235;-80
2023/04/10 04:36:27;;;;;;;96.03;54.95;;;7.10;99.90;;;;;;4793043;29;20341;-78
2023/04/10 04:39:15;;;;;;;94.28;56.63;;;7.20;99.90;;;;;;4780260;29;20198;-81
2023/04/10 04:42:13;;;;;;;93.68;55.80;;;7.20;99.90;;;;;;4783249;29;20280;-81
2023/04/10 04:44:39;;;;;;;93.03;54.70;;;7.10;99.90;;;;;;4785834;29;20677;-79
2023/04/10 04:47:23;;;;;;;93.05;56.22;;;7.10;99.90;;;;;;4774232;29;20192;-79
2023/04/10 04:50:24;;;;;;;90.07;54.95;;;7.10;99.90;;;;;;4757510;30;20669;-79
2023/04/10 04:52:52;;;;;;;90.90;55.13;;;7.10;99.90;;;;;;4788091;30;20263;-81
2023/04/10 04:55:40;;;;;;;85.93;53.97;;;7.10;99.90;;;;;;4772376;29;20197;-86
2023/04/10 04:58:29;;;;;;;88.38;54.88;;;7.10;99.90;;;;;;4780982;29;20200;-80
2023/04/10 05:01:11;;;;;;;96.18;54.80;;;7.10;99.90;;;;;;4763240;29;20249;-80
2023/04/10 05:03:56;;;;;;;94.20;55.97;;;7.10;99.90;;;;;;4792245;29;20305;-81
2023/04/10 05:06:42;;;;;;;92.38;54.83;;;7.20;99.90;;;;;;4785530;29;20219;-81
2023/04/10 05:09:22;;;;;;;97.18;54.30;;;7.20;99.90;;;;;;4786248;29;20184;-81
2023/04/10 05:12:02;;;;;;;90.95;53.05;;;7.20;99.90;;;;;;4772161;30;20231;-80
2023/04/10 05:15:04;;;;;;;87.55;52.70;;;7.20;99.90;;;;;;4780418;29;20234;-80
2023/04/10 05:17:42;;;;;;;94.32;52.55;;;7.20;99.90;;;;;;4798297;29;20194;-79
2023/04/10 05:20:26;;;;;;;95.25;53.15;;;7.30;99.90;;;;;;4807627;29;20248;-80
2023/04/10 05:23:10;;;;;;;84.88;52.70;;;7.30;99.90;;;;;;4763929;30;20239;-80
2023/04/10 05:25:45;;;;;;;84.03;51.80;;;7.30;99.90;;;;;;4786435;29;20203;-80
2023/04/10 05:28:40;;;;;;;86.32;52.22;;;7.30;99.90;;;;;;4758411;30;20201;-80
2023/04/10 05:31:24;;;;;;;84.90;51.35;;;7.40;99.90;;;;;;4788672;29;20695;-80
2023/04/10 05:33:58;;;;;;;87.18;52.53;;;7.40;99.90;;;;;;4820903;29;20636;-84
2023/04/10 05:36:44;;;;;;;89.25;52.75;;;7.50;99.90;;;;;;4776596;29;20287;-81
2023/04/10 05:39:20;;;;;;;88.10;52.53;;;7.60;99.90;;;;;;4775448;29;20194;-81
2023/04/10 05:42:18;;;;;;;91.05;55.20;;;7.60;99.90;;;;;;4778711;30;20205;-81
2023/04/10 05:44:56;;;;;;;85.45;52.42;;;7.60;99.90;;;;;;4785208;29;20206;-81
2023/04/10 05:47:40;;;;;;;85.05;53.03;;;7.70;99.90;;;;;;4806149;29;20199;-80
2023/04/10 05:50:36;;;;;;;87.47;52.60;;;7.80;99.90;;;;;;4783086;29;20203;-81
2023/04/10 05:53:20;;;;;;;87.63;53.05;;;7.80;99.90;;;;;;4792543;29;20638;-80
2023/04/10 05:56:15;;;;;;;85.82;53.20;;;7.90;99.90;;;;;;4776045;29;20217;-82
2023/04/10 05:59:17;;;;;;;84.13;51.22;;;8.00;99.90;;;;;;4775550;29;20192;-80
2023/04/10 06:01:57;;;;;;;85.38;52.35;;;8.00;99.90;;;;;;4780484;29;20208;-79
2023/04/10 06:04:24;;;;;;;86.93;51.40;;;8.10;99.90;;;;;;4757711;30;20191;-80
2023/04/10 06:06:52;;;;;;;86.93;52.15;;;8.20;99.90;;;;;;4782909;29;20215;-81
2023/04/10 06:09:18;;;;;;;84.50;52.08;;;8.20;99.90;;;;;;4775161;29;20237;-81
2023/04/10 06:11:44;;;;;;;85.15;50.25;;;8.30;99.90;;;;;;4790065;29;20589;-81
2023/04/10 06:14:10;;;;;;;82.60;51.60;;;8.40;99.90;;;;;;4789210;29;20239;-81
2023/04/10 06:16:42;;;;;;;86.53;52.33;;;8.50;99.90;;;;;;4771606;30;20228;-80
2023/04/10 06:19:07;;;;;;;78.97;51.33;;;8.50;99.90;;;;;;4799858;29;20194;-80
2023/04/10 06:21:35;;;;;;;81.60;51.95;;;8.60;99.90;;;;;;4763658;29;20244;-80
2023/04/10 06:24:01;;;;;;;80.57;50.13;;;8.70;99.90;;;;;;4807533;29;20199;-81
2023/04/10 06:26:26;;;;;;;82.10;50.80;;;8.80;99.90;;;;;;4792213;29;20640;-84
2023/04/10 06:28:53;;;;;;;84.63;51.15;;;8.80;99.90;;;;;;4800870;29;20283;-80
2023/04/10 06:31:22;;;;;;;78.68;50.47;;;8.90;99.90;;;;;;4791028;29;20295;-82
2023/04/10 06:33:49;;;;;;;84.78;50.72;;;9.00;99.90;;;;;;4774771;29;20299;-81
2023/04/10 06:36:16;;;;;;;79.95;49.83;;;9.10;99.90;;;;;;4789471;29;20287;-82
2023/04/10 06:38:49;;;;;;;78.00;47.50;;;9.20;99.90;;;;;;4789684;29;20180;-85
2023/04/10 06:41:14;;;;;;;79.22;48.92;;;9.20;99.90;;;;;;4789207;29;20599;-82
2023/04/10 06:43:40;;;;;;;76.07;48.60;;;9.30;99.90;;;;;;4789384;29;20200;-82
2023/04/10 06:46:06;;;;;;;80.63;46.55;;;9.40;99.90;;;;;;4790089;29;20200;-82
2023/04/10 06:48:32;;;;;;;77.40;47.70;;;9.50;99.90;;;;;;4775936;29;20200;-82
2023/04/10 06:51:01;;;;;;;77.93;47.35;;;9.50;99.90;;;;;;4791817;29;20196;-83
2023/04/10 06:53:27;;;;;;;77.07;46.72;;;9.50;99.90;;;;;;4778390;29;20224;-83
2023/04/10 06:55:53;;;;;;;72.57;44.15;;;9.60;99.90;;;;;;4792094;29;20191;-82
2023/04/10 06:58:19;;;;;;;73.35;42.95;;;9.80;99.90;;;;;;4793406;29;20200;-82
2023/04/10 07:00:45;;;;;;;65.38;41.75;;;9.90;99.90;;;;;;4777374;29;20872;-82
2023/04/10 07:03:11;;;;;;;67.03;41.13;;;10.10;99.90;;;;;;4776096;29;20201;-82
2023/04/10 07:05:37;;;;;;;67.07;40.08;;;10.20;99.90;;;;;;4797312;29;20575;-83
2023/04/10 07:08:03;;;;;;;71.63;41.90;;;10.40;99.90;;;;;;4792694;29;20195;-82
2023/04/10 07:10:29;;;;;;;63.40;39.38;;;10.60;99.90;;;;;;4791380;29;20308;-83
2023/04/10 07:12:56;;;;;;;64.07;40.08;;;10.60;99.90;;;;;;4763080;29;20224;-84
2023/04/10 07:15:21;;;;;;;66.55;40.03;;;10.70;99.90;;;;;;4767644;29;20193;-84
2023/04/10 07:17:47;;;;;;;66.85;39.88;;;10.80;99.90;;;;;;4763255;29;20668;-82
2023/04/10 07:20:13;;;;;;;63.58;39.03;;;10.80;99.90;;;;;;4776564;29;20287;-80
2023/04/10 07:22:39;;;;;;;66.03;39.70;;;11.30;99.90;;;;;;4792426;29;20229;-83
2023/04/10 07:25:06;;;;;;;76.88;45.35;;;11.70;99.90;;;;;;4759960;30;20185;-83
2023/04/10 07:27:32;;;;;;;64.43;41.85;;;11.90;99.90;;;;;;4761384;29;20196;-82
2023/04/10 07:29:57;;;;;;;61.95;39.25;;;11.90;99.90;;;;;;4797484;29;20650;-82
2023/04/10 07:32:23;;;;;;;65.00;41.25;;;11.90;99.90;;;;;;4774292;30;20766;-81
2023/04/10 07:34:49;;;;;;;59.97;38.72;;;12.00;99.90;;;;;;4759642;30;20679;-82
2023/04/10 07:37:16;;;;;;;69.07;43.35;;;12.10;99.90;;;;;;4759578;30;20201;-83
2023/04/10 07:39:42;;;;;;;70.35;44.92;;;12.20;99.90;;;;;;4783998;29;20191;-82
2023/04/10 07:42:10;;;;;;;64.25;41.60;;;12.40;99.90;;;;;;4789712;30;20195;-83
2023/04/10 07:44:36;;;;;;;69.32;44.20;;;12.70;99.90;;;;;;4775645;29;20189;-82
2023/04/10 07:47:02;;;;;;;68.13;44.83;;;13.20;99.90;;;;;;4791063;30;20698;-82
2023/04/10 07:49:28;;;;;;;62.80;40.30;;;14.10;99.90;;;;;;4793438;29;20184;-83
2023/04/10 07:51:54;;;;;;;60.65;38.65;;;15.20;99.70;;;;;;4808107;29;20660;-84
2023/04/10 07:54:20;;;;;;;59.60;40.28;;;16.20;97.30;;;;;;4790032;29;20327;-84
2023/04/10 07:56:46;;;;;;;58.92;39.10;;;17.30;94.30;;;;;;4775072;29;20201;-81
2023/04/10 07:59:11;;;;;;;56.65;37.92;;;18.10;91.50;;;;;;4790407;29;20650;-81
2023/04/10 08:01:37;;;;;;;62.67;39.05;;;19.00;88.40;;;;;;4808557;29;20536;-82
2023/04/10 08:04:03;;;;;;;52.83;35.95;;;19.70;83.90;;;;;;4788897;29;20257;-84
2023/04/10 08:06:30;;;;;;;50.60;34.13;;;20.20;78.60;;;;;;4794941;29;20188;-87
2023/04/10 08:08:57;;;;;;;47.25;32.63;;;20.50;74.70;;;;;;4795192;29;20195;-86
2023/04/10 08:11:26;;;;;;;43.10;29.45;;;20.90;70.00;;;;;;4758250;30;20315;-84
2023/04/10 08:13:57;;;;;;;47.67;31.05;;;21.10;66.50;;;;;;4788021;30;20319;-85
2023/04/10 08:16:27;;;;;;;43.72;30.67;;;20.90;63.00;;;;;;4787821;29;20218;-84
2023/04/10 08:18:53;;;;;;;43.30;30.60;;;20.70;61.70;;;;;;4800876;29;20195;-84
2023/04/10 08:21:26;;;;;;;42.00;29.45;;;20.70;61.00;;;;;;4964572;24;20259;-87
2023/04/10 08:23:56;;;;;;;44.33;29.13;;;20.50;60.40;;;;;;4813837;29;20220;-87
2023/04/10 08:31:59;;;;;;;38.30;29.02;;;19.80;60.30;;;;;;5156247;24;20240;-83
2023/04/10 08:34:26;;;;;;;41.88;29.10;;;20.40;58.90;;;;;;4947678;24;20697;-88
2023/04/10 08:36:53;;;;;;;39.35;28.77;;;20.90;56.50;;;;;;4803012;29;20207;-84
2023/04/10 08:39:19;;;;;;;41.05;29.00;;;21.20;55.30;;;;;;4793078;29;20252;-84
2023/04/10 08:41:44;;;;;;;39.95;28.80;;;21.50;54.10;;;;;;4791240;29;20271;-83
2023/04/10 08:44:10;;;;;;;36.70;28.15;;;21.70;53.20;;;;;;4805812;29;20202;-86
2023/04/10 08:46:43;;;;;;;41.47;28.55;;;21.90;52.30;;;;;;4791367;29;20188;-85
2023/04/10 08:49:14;;;;;;;39.40;28.27;;;22.00;51.10;;;;;;4804807;29;20267;-85
2023/04/10 08:51:45;;;;;;;40.00;28.55;;;22.20;50.60;;;;;;4776310;29;20192;-86
2023/04/10 08:54:20;;;;;;;39.30;28.77;;;21.90;49.80;;;;;;4790247;29;20219;-85
2023/04/10 08:56:51;;;;;;;39.65;29.42;;;21.40;50.50;;;;;;4790230;29;20210;-85
2023/04/10 08:59:17;;;;;;;43.88;30.73;;;21.00;51.50;;;;;;4795424;29;20188;-86
2023/04/10 09:01:43;;;;;;;41.75;29.10;;;21.00;52.00;;;;;;4811330;29;20191;-84
2023/04/10 09:04:11;;;;;;;42.75;29.55;;;21.00;51.70;;;;;;4794596;29;20192;-87
2023/04/10 09:06:36;;;;;;;42.60;30.05;;;20.90;51.80;;;;;;4772774;30;20188;-85
2023/04/10 09:09:04;;;;;;;41.47;28.92;;;20.40;52.40;;;;;;4784113;29;20671;-84
2023/04/10 09:11:55;;;;;;;44.03;29.88;;;20.00;53.20;;;;;;4774241;29;20187;-85
2023/04/10 09:14:26;;;;;;;43.67;29.10;;;19.40;54.50;;;;;;4773249;29;20218;-85
2023/04/10 09:16:53;;;;;;;39.72;28.35;;;18.90;56.00;;;;;;4807873;29;20269;-86
2023/04/10 09:19:33;;;;;;;39.25;26.77;;;18.50;57.30;;;;;;4805147;29;20642;-81
2023/04/10 09:21:59;;;;;;;40.45;25.92;;;18.40;58.40;;;;;;4791476;29;20191;-83
2023/04/10 09:24:26;;;;;;;35.30;24.50;;;18.20;59.10;;;;;;4776950;29;20278;-84
2023/04/10 09:26:52;;;;;;;34.20;24.20;;;18.10;59.50;;;;;;4790966;29;20191;-83
2023/04/10 09:29:17;;;;;;;34.03;23.70;;;18.00;59.60;;;;;;4780731;29;20553;-85
2023/04/10 09:31:44;;;;;;;32.35;23.05;;;17.80;59.80;;;;;;4794119;29;20238;-83
2023/04/10 09:34:30;;;;;;;34.72;23.00;;;17.60;60.20;;;;;;4809241;29;20274;-84
2023/04/10 09:37:02;;;;;;;32.78;22.63;;;17.40;61.50;;;;;;4779126;29;20239;-83
2023/04/10 09:39:42;;;;;;;34.55;23.23;;;17.40;62.50;;;;;;4779485;29;20299;-84
2023/04/10 09:42:10;;;;;;;31.13;21.92;;;17.30;62.50;;;;;;4794888;29;20211;-84
2023/04/10 09:44:39;;;;;;;32.05;21.98;;;17.10;62.60;;;;;;4795249;29;20234;-84
2023/04/10 09:47:20;;;;;;;31.55;22.13;;;17.10;63.60;;;;;;4809746;29;20192;-84
2023/04/10 09:49:51;;;;;;;30.92;20.35;;;17.10;64.10;;;;;;4792077;29;20230;-82
2023/04/10 09:55:29;;;;;;;29.33;20.00;;;17.30;64.50;;;;;;4789827;29;20278;-84
2023/04/10 09:57:57;;;;;;;31.10;20.27;;;17.40;63.80;;;;;;4772988;30;20192;-84
2023/04/10 10:00:24;;;;;;;29.25;20.98;;;17.40;63.70;;;;;;4785838;29;20239;-84
2023/04/10 10:02:52;;;;;;;30.65;20.55;;;17.50;63.60;;;;;;4772161;30;20188;-85
2023/04/10 10:05:19;;;;;;;32.75;21.10;;;17.60;63.30;;;;;;4787527;29;20180;-84
2023/04/10 10:07:45;;;;;;;28.17;20.23;;;17.60;63.50;;;;;;4777584;29;20612;-86
2023/04/10 10:10:11;;;;;;;28.13;19.85;;;17.70;63.90;;;;;;4792177;29;20700;-83
2023/04/10 10:12:49;;;;;;;27.77;19.05;;;17.70;63.80;;;;;;4797871;29;20299;-84
2023/04/10 10:15:29;;;;;;;26.65;18.65;;;17.80;63.70;;;;;;4808115;29;20202;-84
2023/04/10 10:18:02;;;;;;;26.42;17.50;;;17.90;61.90;;;;;;4805361;29;20207;-83
2023/04/10 10:20:31;;;;;;;24.55;16.88;;;18.00;63.50;;;;;;4789545;29;20278;-83
2023/04/10 10:22:57;;;;;;;26.58;17.17;;;18.20;62.70;;;;;;4797960;29;20273;-84
2023/04/10 10:25:25;;;;;;;24.52;17.75;;;18.20;62.30;;;;;;4808584;29;20183;-84
2023/04/10 10:27:53;;;;;;;27.60;17.60;;;18.20;61.70;;;;;;4794282;29;20197;-83
2023/04/10 10:30:20;;;;;;;31.02;18.95;;;18.10;61.70;;;;;;4788766;29;20185;-83
2023/04/10 10:32:47;;;;;;;28.25;18.58;;;17.90;61.50;;;;;;4790350;29;20208;-82
2023/04/10 10:35:14;;;;;;;24.23;17.75;;;17.80;62.40;;;;;;4772198;30;20243;-82
2023/04/10 10:37:41;;;;;;;25.58;18.00;;;17.70;62.80;;;;;;4798772;29;20188;-82
2023/04/10 10:40:27;;;;;;;27.55;17.95;;;17.60;63.00;;;;;;4775829;29;20211;-84
2023/04/10 10:43:11;;;;;;;23.77;17.05;;;17.50;63.70;;;;;;4807954;29;20187;-82
2023/04/10 10:45:45;;;;;;;23.23;15.27;;;17.50;64.20;;;;;;4793543;29;20202;-83
2023/04/10 10:48:11;;;;;;;21.05;14.23;;;17.40;63.90;;;;;;4809175;29;20168;-84
2023/04/10 10:50:56;;;;;;;20.67;13.80;;;17.40;63.90;;;;;;4759437;29;20212;-87
2023/04/10 10:53:43;;;;;;;20.55;13.10;;;17.30;63.80;;;;;;4793950;29;20200;-81
2023/04/10 10:56:32;;;;;;;18.73;13.90;;;17.10;63.70;;;;;;4807221;29;20180;-84
2023/04/10 10:58:58;;;;;;;17.83;12.27;;;16.90;64.50;;;;;;4796830;29;20180;-82
2023/04/10 11:01:25;;;;;;;18.08;12.43;;;16.80;65.10;;;;;;4793774;29;20548;-83
2023/04/10 11:03:50;;;;;;;17.65;12.85;;;16.80;65.20;;;;;;4781739;29;20275;-84
2023/04/10 11:06:20;;;;;;;17.67;12.38;;;16.80;65.20;;;;;;4792926;29;20207;-83
2023/04/10 11:08:48;;;;;;;16.70;11.65;;;16.70;65.70;;;;;;4781517;29;20259;-84
2023/04/10 11:11:22;;;;;;;16.08;11.60;;;16.70;66.00;;;;;;4765698;30;20289;-86
2023/04/10 11:13:55;;;;;;;15.80;11.63;;;16.70;65.80;;;;;;4774523;30;20220;-85
2023/04/10 11:16:42;;;;;;;15.68;12.00;;;16.70;66.00;;;;;;4782794;29;20192;-81
2023/04/10 11:19:11;;;;;;;21.85;12.15;;;16.60;66.20;;;;;;4780448;29;20192;-85
2023/04/10 11:22:04;;;;;;;17.17;11.60;;;16.60;66.40;;;;;;4777057;29;20674;-80
2023/04/10 11:25:00;;;;;;;15.32;10.57;;;16.60;66.70;;;;;;4796997;29;20180;-84
2023/04/10 11:27:44;;;;;;;14.57;10.90;;;16.70;67.40;;;;;;4800775;29;20181;-83
2023/04/10 11:30:27;;;;;;;15.30;11.20;;;16.80;66.90;;;;;;4803808;29;20644;-84
2023/04/10 11:32:54;;;;;;;14.25;10.35;;;16.80;66.80;;;;;;4793218;29;20223;-84
2023/04/10 11:35:20;;;;;;;13.48;10.10;;;16.90;67.10;;;;;;4794587;29;20269;-84
2023/04/10 11:37:46;;;;;;;14.88;9.88;;;16.90;66.90;;;;;;4784336;29;20198;-87
2023/04/10 11:40:12;;;;;;;11.38;8.93;;;16.80;67.00;;;;;;4784112;29;20188;-86
2023/04/10 11:42:44;;;;;;;12.98;9.48;;;16.70;67.50;;;;;;4792992;29;20196;-83
2023/04/10 11:45:28;;;;;;;12.50;9.20;;;16.70;67.70;;;;;;4778075;29;20192;-85
2023/04/10 11:47:54;;;;;;;12.13;8.70;;;16.70;68.10;;;;;;4791834;29;20309;-83
2023/04/10 11:50:22;;;;;;;10.48;7.80;;;16.70;68.30;;;;;;4807773;29;20199;-82
2023/04/10 11:52:50;;;;;;;9.80;7.85;;;16.70;68.20;;;;;;4778289;29;20302;-83
2023/04/10 11:55:18;;;;;;;11.93;8.00;;;16.70;68.60;;;;;;4807328;29;20279;-85
2023/04/10 11:57:45;;;;;;;12.27;7.30;;;16.80;68.20;;;;;;4790441;29;20357;-82
2023/04/10 12:00:23;;;;;;;13.32;8.60;;;16.70;68.00;;;;;;4788123;30;20196;-84
2023/04/10 12:02:52;;;;;;;11.38;7.70;;;16.70;67.50;;;;;;4774214;29;20574;-88
2023/04/10 12:05:20;;;;;;;10.10;7.35;;;16.60;67.50;;;;;;4790570;29;20208;-84
2023/04/10 12:07:49;;;;;;;9.13;6.90;;;16.70;67.90;;;;;;4774823;29;20196;-84
2023/04/10 12:10:15;;;;;;;9.70;6.72;;;16.70;69.10;;;;;;4790906;29;20195;-83
2023/04/10 12:12:46;;;;;;;9.95;6.90;;;16.80;68.10;;;;;;4791171;29;20219;-85
2023/04/10 12:15:27;;;;;;;9.35;6.60;;;16.90;67.80;;;;;;4789654;29;20568;-84
2023/04/10 12:17:54;;;;;;;9.07;6.68;;;17.00;67.60;;;;;;4789886;29;20272;-89
2023/04/10 12:20:22;;;;;;;9.00;6.68;;;17.10;66.90;;;;;;4789745;29;20659;-81
2023/04/10 12:22:48;;;;;;;10.23;6.20;;;17.20;66.60;;;;;;4806318;29;20192;-81
2023/04/10 12:25:16;;;;;;;8.15;6.20;;;17.30;66.40;;;;;;4800769;29;20196;-81
2023/04/10 12:27:48;;;;;;;9.88;6.45;;;17.40;66.50;;;;;;4776382;29;20192;-80
2023/04/10 12:30:14;;;;;;;8.82;5.88;;;17.60;66.10;;;;;;4821061;29;20183;-78
2023/04/10 12:32:40;;;;;;;7.50;5.97;;;17.70;65.80;;;;;;4793420;29;20748;-83
2023/04/10 12:35:06;;;;;;;7.25;5.30;;;17.90;64.30;;;;;;4791761;29;20236;-83
2023/04/10 12:37:53;;;;;;;8.55;5.82;;;18.00;63.50;;;;;;4761567;29;20645;-83
2023/04/10 12:40:19;;;;;;;8.55;5.45;;;18.00;63.50;;;;;;4792795;29;20192;-81
2023/04/10 12:42:46;;;;;;;10.35;6.22;;;18.00;63.60;;;;;;4790976;29;20275;-85
2023/04/10 12:45:13;;;;;;;7.50;5.25;;;18.00;63.50;;;;;;4776353;29;20336;-83
2023/04/10 12:47:47;;;;;;;8.70;5.90;;;18.00;63.20;;;;;;4792804;29;20204;-82
2023/04/10 12:50:16;;;;;;;8.25;5.75;;;17.90;63.70;;;;;;4792460;29;20187;-81
2023/04/10 12:53:00;;;;;;;9.20;5.25;;;17.80;63.70;;;;;;4773121;30;20705;-82
2023/04/10 12:55:27;;;;;;;8.02;5.68;;;17.70;64.40;;;;;;4780492;29;20168;-81
2023/04/10 12:57:56;;;;;;;9.27;5.57;;;17.60;65.20;;;;;;4786278;29;20189;-91
2023/04/10 13:00:24;;;;;;;7.15;5.03;;;17.50;65.90;;;;;;4786759;29;20196;-86
2023/04/10 13:02:50;;;;;;;8.82;5.30;;;17.40;66.60;;;;;;4790571;29;20196;-83
2023/04/10 13:05:15;;;;;;;7.47;5.40;;;17.40;67.30;;;;;;4815765;29;20191;-92